Time;durP1;ratioP1;P1;durP2;ratioP2;P2;SDS_P1;SDS_P2;PMS_P1;PMS_P2;Temp;Humidity;BMP_temperature;BMP_pressure;BME280_temperature;BME280_humidity;BME280_pressure;Samples;Min_cycle;Max_cycle;Signal;HPM_P1;HPM_P2
2022/09/25 00:00:22;;;;;;;29.40;19.33;;;16.00;99.90;;;;;;5059521;28;20112;-89
2022/09/25 00:02:48;;;;;;;27.50;17.83;;;15.90;99.90;;;;;;5049821;28;20049;-89
2022/09/25 00:05:15;;;;;;;27.48;17.77;;;16.00;99.90;;;;;;5048152;28;20028;-89
2022/09/25 00:07:41;;;;;;;27.48;17.55;;;16.00;99.90;;;;;;5053701;28;20037;-89
2022/09/25 00:10:07;;;;;;;27.58;19.23;;;15.90;99.90;;;;;;5071464;28;20107;-89
2022/09/25 00:12:33;;;;;;;31.48;20.58;;;16.00;99.90;;;;;;5070303;28;20033;-89
2022/09/25 00:14:58;;;;;;;31.50;18.42;;;15.90;99.90;;;;;;5046352;28;20028;-89
2022/09/25 00:17:24;;;;;;;28.05;18.73;;;16.00;99.90;;;;;;5053720;28;20521;-89
2022/09/25 00:19:59;;;;;;;30.45;19.95;;;15.90;99.90;;;;;;5071320;28;20020;-89
2022/09/25 00:22:26;;;;;;;32.70;19.98;;;15.90;99.90;;;;;;5035245;28;20059;-89
2022/09/25 00:24:53;;;;;;;27.55;17.70;;;16.00;99.90;;;;;;5049745;28;20493;-89
2022/09/25 00:27:18;;;;;;;28.85;17.90;;;15.90;99.90;;;;;;5050966;28;20099;-89
2022/09/25 00:29:46;;;;;;;27.42;18.38;;;15.90;99.90;;;;;;5047706;28;20052;-89
2022/09/25 00:32:12;;;;;;;32.85;20.20;;;16.00;99.90;;;;;;5052726;28;20024;-88
2022/09/25 00:34:39;;;;;;;29.85;19.60;;;15.90;99.90;;;;;;5053266;28;20028;-88
2022/09/25 00:37:05;;;;;;;31.63;20.00;;;15.90;99.90;;;;;;5048952;28;20033;-89
2022/09/25 00:39:32;;;;;;;30.58;19.13;;;15.90;99.90;;;;;;5053066;28;20059;-89
2022/09/25 00:41:58;;;;;;;32.83;20.42;;;15.90;99.90;;;;;;5085962;22;20041;-76
2022/09/25 00:44:56;;;;;;;30.35;19.35;;;15.90;99.90;;;;;;5066922;28;20058;-76
2022/09/25 00:47:34;;;;;;;29.52;19.33;;;15.90;99.90;;;;;;5057237;28;20028;-76
2022/09/25 00:50:03;;;;;;;29.23;19.70;;;15.90;99.90;;;;;;5063019;28;20016;-76
2022/09/25 00:52:30;;;;;;;32.90;19.02;;;15.90;99.90;;;;;;5067647;28;20108;-76
2022/09/25 00:55:01;;;;;;;29.15;18.50;;;15.90;99.90;;;;;;5063390;28;20032;-76
2022/09/25 00:57:30;;;;;;;30.02;19.05;;;15.90;99.90;;;;;;5060970;28;20021;-76
2022/09/25 01:00:01;;;;;;;29.67;18.60;;;15.90;99.90;;;;;;5073554;28;20651;-74
2022/09/25 01:02:31;;;;;;;30.00;18.90;;;15.90;99.90;;;;;;5061032;28;20373;-74
2022/09/25 01:05:01;;;;;;;27.85;18.20;;;15.80;99.90;;;;;;5066751;28;20074;-74
2022/09/25 01:07:28;;;;;;;29.73;20.17;;;15.90;99.90;;;;;;5066362;28;20025;-74
2022/09/25 01:09:58;;;;;;;32.67;19.48;;;15.80;99.90;;;;;;5062608;28;20108;-74
2022/09/25 01:12:24;;;;;;;30.05;19.02;;;15.90;99.90;;;;;;5067306;28;20017;-74
2022/09/25 01:14:50;;;;;;;28.45;18.52;;;15.90;99.90;;;;;;5067513;28;20032;-74
2022/09/25 01:17:40;;;;;;;31.90;19.77;;;15.90;99.90;;;;;;5058069;28;20029;-74
2022/09/25 01:20:22;;;;;;;30.50;19.60;;;15.90;99.90;;;;;;5071898;28;20481;-74
2022/09/25 01:22:54;;;;;;;29.88;19.30;;;15.90;99.90;;;;;;5063469;28;20020;-74
2022/09/25 01:25:43;;;;;;;31.60;21.13;;;15.90;99.90;;;;;;5058769;28;20032;-74
2022/09/25 01:28:37;;;;;;;33.85;21.20;;;15.90;99.90;;;;;;5058479;28;20465;-74
2022/09/25 01:31:11;;;;;;;33.70;22.20;;;15.90;99.90;;;;;;5065253;28;20552;-74
2022/09/25 01:33:52;;;;;;;35.42;22.38;;;15.90;99.90;;;;;;5069427;28;20094;-74
2022/09/25 01:36:28;;;;;;;34.15;21.73;;;15.90;99.90;;;;;;5058350;28;20036;-75
2022/09/25 01:39:12;;;;;;;33.45;21.58;;;15.90;99.90;;;;;;5070347;28;20017;-75
2022/09/25 01:41:56;;;;;;;34.67;21.45;;;15.80;99.90;;;;;;5067624;28;20144;-75
2022/09/25 01:44:30;;;;;;;34.35;21.02;;;15.80;99.90;;;;;;5057657;28;20040;-75
2022/09/25 01:47:03;;;;;;;34.47;21.50;;;15.80;99.90;;;;;;5073085;28;20059;-75
2022/09/25 01:49:36;;;;;;;29.25;20.10;;;15.80;99.90;;;;;;5066699;28;20025;-74
2022/09/25 01:52:07;;;;;;;33.50;21.67;;;15.80;99.90;;;;;;5051819;28;20067;-75
2022/09/25 01:54:47;;;;;;;32.80;21.23;;;15.80;99.90;;;;;;5061561;28;20035;-75
2022/09/25 01:57:31;;;;;;;37.50;21.70;;;15.80;99.90;;;;;;5070854;28;20120;-75
2022/09/25 02:00:14;;;;;;;32.40;20.80;;;15.90;99.90;;;;;;5070988;28;20123;-75
2022/09/25 02:02:45;;;;;;;34.30;22.48;;;15.80;99.90;;;;;;5068292;28;20020;-74
2022/09/25 02:05:37;;;;;;;36.75;23.08;;;15.80;99.90;;;;;;5063801;28;20061;-74
2022/09/25 02:08:10;;;;;;;32.35;21.25;;;15.80;99.90;;;;;;5065123;28;20033;-74
2022/09/25 02:10:43;;;;;;;30.65;20.25;;;15.80;99.90;;;;;;5063016;28;20059;-74
2022/09/25 02:13:16;;;;;;;33.83;21.88;;;15.80;99.90;;;;;;5068860;28;20081;-74
2022/09/25 02:16:04;;;;;;;32.40;20.48;;;15.80;99.90;;;;;;5067757;28;20028;-74
2022/09/25 02:21:52;;;;;;;34.00;21.63;;;15.80;99.90;;;;;;5068927;28;20036;-73
2022/09/25 02:24:25;;;;;;;35.40;21.80;;;15.80;99.90;;;;;;5059460;28;20021;-75
2022/09/25 02:26:52;;;;;;;34.60;21.45;;;15.80;99.90;;;;;;5065523;28;20365;-75
2022/09/25 02:29:18;;;;;;;42.25;22.83;;;15.80;99.90;;;;;;5072112;28;20050;-75
2022/09/25 02:31:49;;;;;;;33.35;21.85;;;15.80;99.90;;;;;;5064306;28;20024;-74
2022/09/25 02:34:15;;;;;;;36.17;21.70;;;15.80;99.90;;;;;;5069824;28;20120;-75
2022/09/25 02:36:42;;;;;;;36.17;21.35;;;15.80;99.90;;;;;;5064567;28;20111;-74
2022/09/25 02:39:09;;;;;;;37.47;20.60;;;15.70;99.90;;;;;;5064269;28;20021;-74
2022/09/25 02:41:44;;;;;;;32.08;21.58;;;15.70;99.90;;;;;;5066189;28;20183;-75
2022/09/25 02:44:19;;;;;;;35.22;22.05;;;15.80;99.90;;;;;;5058867;28;20071;-75
2022/09/25 02:47:03;;;;;;;33.25;21.98;;;15.80;99.90;;;;;;5069579;28;20531;-75
2022/09/25 02:49:38;;;;;;;;;;;15.80;99.90;;;;;;5068588;28;20396;-75
2022/09/25 02:52:10;;;;;;;33.35;21.33;;;15.80;99.90;;;;;;5067171;28;19987;-75
2022/09/25 02:54:44;;;;;;;34.65;21.05;;;15.80;99.90;;;;;;5058302;28;20078;-75
2022/09/25 02:57:10;;;;;;;34.72;21.23;;;15.80;99.90;;;;;;5068603;28;20480;-75
2022/09/25 02:59:51;;;;;;;32.08;21.73;;;15.70;99.90;;;;;;5067632;28;20035;-75
2022/09/25 03:02:19;;;;;;;35.25;21.40;;;15.70;99.90;;;;;;5065201;28;20024;-74
2022/09/25 03:04:47;;;;;;;33.58;21.52;;;15.80;99.90;;;;;;5067629;28;20032;-75
2022/09/25 03:07:15;;;;;;;31.67;20.23;;;15.80;99.90;;;;;;5060073;28;20127;-74
2022/09/25 03:09:45;;;;;;;32.13;20.25;;;15.70;99.90;;;;;;5050322;28;20036;-75
2022/09/25 03:12:12;;;;;;;36.80;21.50;;;15.80;99.90;;;;;;5066909;28;20054;-75
2022/09/25 03:14:38;;;;;;;33.80;22.05;;;15.80;99.90;;;;;;5069164;28;20567;-75
2022/09/25 03:17:08;;;;;;;42.88;21.17;;;15.80;99.90;;;;;;5069195;28;20017;-75
2022/09/25 03:19:34;;;;;;;36.67;23.08;;;15.80;99.90;;;;;;5065102;28;20024;-76
2022/09/25 03:22:01;;;;;;;32.58;19.50;;;15.70;99.90;;;;;;5064080;28;20056;-75
2022/09/25 03:24:27;;;;;;;31.98;21.88;;;15.70;99.90;;;;;;5061723;28;20024;-75
2022/09/25 03:26:53;;;;;;;33.95;21.73;;;15.70;99.90;;;;;;5066179;28;20027;-76
2022/09/25 03:29:20;;;;;;;29.40;19.38;;;15.70;99.90;;;;;;5068882;28;20046;-75
2022/09/25 03:31:47;;;;;;;33.75;20.55;;;15.70;99.90;;;;;;5067505;28;20017;-76
2022/09/25 03:34:15;;;;;;;32.25;20.40;;;15.70;99.90;;;;;;5068171;28;20561;-76
2022/09/25 03:36:41;;;;;;;30.90;19.90;;;15.70;99.90;;;;;;5066974;28;20052;-75
2022/09/25 03:39:13;;;;;;;33.88;20.95;;;15.70;99.90;;;;;;5069010;28;20024;-76
2022/09/25 03:41:39;;;;;;;28.77;18.17;;;15.70;99.90;;;;;;5067852;28;20082;-75
2022/09/25 03:44:05;;;;;;;29.05;19.00;;;15.70;99.90;;;;;;5066074;28;20520;-75
2022/09/25 03:46:33;;;;;;;29.77;20.48;;;15.70;99.90;;;;;;5066065;28;20068;-76
2022/09/25 03:48:59;;;;;;;29.27;18.90;;;15.70;99.90;;;;;;5063655;28;20078;-75
2022/09/25 03:51:27;;;;;;;26.90;17.40;;;15.70;99.90;;;;;;5064725;28;20048;-75
2022/09/25 03:53:53;;;;;;;26.65;17.90;;;15.70;99.90;;;;;;5063144;28;20038;-75
2022/09/25 03:56:22;;;;;;;33.75;18.90;;;15.70;99.90;;;;;;5067835;28;20033;-76
2022/09/25 03:58:49;;;;;;;29.25;18.25;;;15.70;99.90;;;;;;5053855;28;20075;-76
2022/09/25 04:01:18;;;;;;;34.00;18.95;;;15.70;99.90;;;;;;5055908;28;20119;-75
2022/09/25 04:03:46;;;;;;;27.58;18.45;;;15.70;99.90;;;;;;5069188;28;20384;-76
2022/09/25 04:06:13;;;;;;;26.50;17.58;;;15.70;99.90;;;;;;5067668;28;20089;-76
2022/09/25 04:08:40;;;;;;;30.08;17.90;;;15.70;99.90;;;;;;5061950;28;20027;-74
2022/09/25 04:11:06;;;;;;;29.05;16.38;;;15.70;99.90;;;;;;5067980;28;20028;-75
2022/09/25 04:13:35;;;;;;;27.20;17.48;;;15.70;99.90;;;;;;5059093;28;20121;-75
2022/09/25 04:16:02;;;;;;;28.10;16.95;;;15.70;99.90;;;;;;5054671;28;20500;-75
2022/09/25 04:18:30;;;;;;;24.52;16.50;;;15.70;99.90;;;;;;5069158;28;20036;-74
2022/09/25 04:21:00;;;;;;;23.73;16.55;;;15.70;99.90;;;;;;5071646;28;20024;-75
2022/09/25 04:23:27;;;;;;;30.08;16.70;;;15.70;99.90;;;;;;5063011;28;20029;-76
2022/09/25 04:25:53;;;;;;;25.33;16.17;;;15.70;99.90;;;;;;5064394;28;20021;-75
2022/09/25 04:28:20;;;;;;;24.33;14.93;;;15.60;99.90;;;;;;5070972;28;20116;-76
2022/09/25 04:30:46;;;;;;;23.48;15.43;;;15.60;99.90;;;;;;5070423;28;20029;-75
2022/09/25 04:35:56;;;;;;;24.85;14.10;;;15.60;99.90;;;;;;5072130;28;20043;-75
2022/09/25 04:38:21;;;;;;;20.85;14.55;;;15.60;99.90;;;;;;5064452;28;20024;-75
2022/09/25 04:40:47;;;;;;;21.92;14.18;;;15.70;99.90;;;;;;5053176;28;20396;-74
2022/09/25 04:43:13;;;;;;;21.38;14.13;;;15.60;99.90;;;;;;5071867;28;20035;-75
2022/09/25 04:45:39;;;;;;;24.75;14.25;;;15.60;99.90;;;;;;5070324;28;20501;-76
2022/09/25 04:48:05;;;;;;;20.77;13.38;;;15.70;99.90;;;;;;5056725;28;20064;-75
2022/09/25 04:50:32;;;;;;;25.05;14.65;;;15.60;99.90;;;;;;5057792;28;20033;-74
2022/09/25 04:52:58;;;;;;;20.83;13.52;;;15.60;99.90;;;;;;5065724;28;20025;-74
2022/09/25 04:55:26;;;;;;;19.98;12.30;;;15.60;99.90;;;;;;5062549;28;20039;-75
2022/09/25 04:57:56;;;;;;;22.15;13.30;;;15.60;99.90;;;;;;5057995;28;20102;-76
2022/09/25 05:00:23;;;;;;;20.65;12.55;;;15.60;99.90;;;;;;5080488;28;20028;-75
2022/09/25 05:02:49;;;;;;;17.60;12.02;;;15.60;99.90;;;;;;5063855;28;20020;-76
2022/09/25 05:05:16;;;;;;;19.15;11.95;;;15.60;99.90;;;;;;5071727;28;20626;-76
2022/09/25 05:07:56;;;;;;;18.90;12.48;;;15.60;99.90;;;;;;5071127;28;20027;-76
2022/09/25 05:10:24;;;;;;;18.75;11.80;;;15.60;99.90;;;;;;5069578;28;20035;-75
2022/09/25 05:12:55;;;;;;;17.35;12.40;;;15.60;99.90;;;;;;5069110;28;20537;-75
2022/09/25 05:15:21;;;;;;;20.65;11.55;;;15.60;99.90;;;;;;5063897;28;20502;-75
2022/09/25 05:17:46;;;;;;;20.52;10.88;;;15.60;99.90;;;;;;5051696;28;20491;-75
2022/09/25 05:20:12;;;;;;;17.95;11.10;;;15.60;99.90;;;;;;5063343;28;20135;-75
2022/09/25 05:22:38;;;;;;;16.00;10.35;;;15.60;99.90;;;;;;5060887;28;20511;-76
2022/09/25 05:25:04;;;;;;;15.13;9.90;;;15.60;99.90;;;;;;5071276;28;20043;-76
2022/09/25 05:27:33;;;;;;;12.45;9.23;;;15.60;99.90;;;;;;5071162;28;20043;-75
2022/09/25 05:29:59;;;;;;;14.88;9.57;;;15.60;99.90;;;;;;5062911;28;20031;-76
2022/09/25 05:32:25;;;;;;;13.82;9.25;;;15.60;99.90;;;;;;5065890;28;20143;-75
2022/09/25 05:34:51;;;;;;;14.25;8.77;;;15.60;99.90;;;;;;5058521;28;20560;-76
2022/09/25 05:37:16;;;;;;;14.75;8.88;;;15.60;99.90;;;;;;5080039;28;20384;-76
2022/09/25 05:39:42;;;;;;;14.40;9.07;;;15.60;99.90;;;;;;5069827;28;20468;-75
2022/09/25 05:42:08;;;;;;;13.18;8.40;;;15.60;99.90;;;;;;5070814;28;20028;-76
2022/09/25 05:44:34;;;;;;;15.50;10.38;;;15.50;99.90;;;;;;5064856;28;20121;-76
2022/09/25 05:46:59;;;;;;;12.43;8.73;;;15.50;99.90;;;;;;5065623;28;20051;-76
2022/09/25 05:49:25;;;;;;;13.98;8.52;;;15.60;99.90;;;;;;5065757;28;20078;-75
2022/09/25 05:51:51;;;;;;;13.25;7.57;;;15.60;99.90;;;;;;5064666;28;20024;-76
2022/09/25 05:54:16;;;;;;;14.07;8.82;;;15.60;99.90;;;;;;5047007;28;20104;-76
2022/09/25 05:56:42;;;;;;;13.75;7.78;;;15.60;99.90;;;;;;5070074;28;20055;-75
2022/09/25 05:59:08;;;;;;;11.95;7.72;;;15.60;99.90;;;;;;5068132;28;20449;-76
2022/09/25 06:01:34;;;;;;;13.05;8.25;;;15.60;99.90;;;;;;5066818;28;20608;-75
2022/09/25 06:04:00;;;;;;;12.32;7.45;;;15.60;99.90;;;;;;5055592;28;20377;-76
2022/09/25 06:06:25;;;;;;;12.35;7.60;;;15.60;99.90;;;;;;5067726;28;20036;-76
2022/09/25 06:08:53;;;;;;;12.50;6.88;;;15.60;99.90;;;;;;5065139;28;20182;-76
2022/09/25 06:11:19;;;;;;;15.90;7.20;;;15.50;99.90;;;;;;5064156;28;20046;-75
2022/09/25 06:13:49;;;;;;;12.68;7.45;;;15.50;99.90;;;;;;5063569;28;20456;-75
2022/09/25 06:16:22;;;;;;;12.90;7.30;;;15.50;99.90;;;;;;5068604;28;20104;-75
2022/09/25 06:18:47;;;;;;;12.40;7.82;;;15.50;99.90;;;;;;5065267;28;20021;-75
2022/09/25 06:21:13;;;;;;;12.77;8.65;;;15.50;99.90;;;;;;5068592;28;20028;-75
2022/09/25 06:23:43;;;;;;;14.43;7.85;;;15.50;99.90;;;;;;5066377;28;20056;-75
2022/09/25 06:26:09;;;;;;;16.90;9.32;;;15.50;99.90;;;;;;5066160;28;20024;-75
2022/09/25 06:28:35;;;;;;;20.95;10.18;;;15.50;99.90;;;;;;5063029;28;20098;-75
2022/09/25 06:31:02;;;;;;;22.70;12.00;;;15.50;99.90;;;;;;5069075;28;20032;-75
2022/09/25 06:33:28;;;;;;;24.98;11.75;;;15.50;99.90;;;;;;5066644;28;20032;-76
2022/09/25 06:35:54;;;;;;;22.02;12.27;;;15.50;99.90;;;;;;5062380;28;20036;-74
2022/09/25 06:38:20;;;;;;;30.08;12.00;;;15.40;99.90;;;;;;5064106;28;20035;-75
2022/09/25 06:40:46;;;;;;;25.77;11.85;;;15.40;99.90;;;;;;5058955;28;20485;-76
2022/09/25 06:43:14;;;;;;;21.33;10.82;;;15.40;99.90;;;;;;5066307;28;20480;-75
2022/09/25 06:45:41;;;;;;;23.48;11.25;;;15.40;99.90;;;;;;5069928;28;20024;-74
2022/09/25 06:48:10;;;;;;;22.27;11.27;;;15.40;99.90;;;;;;5067051;28;20512;-74
2022/09/25 06:50:48;;;;;;;18.88;9.38;;;15.40;99.90;;;;;;5062981;28;20054;-74
2022/09/25 06:53:16;;;;;;;17.30;9.65;;;15.40;99.90;;;;;;5067967;28;20032;-74
2022/09/25 06:55:44;;;;;;;19.67;10.05;;;15.40;99.90;;;;;;5053396;28;20047;-74
2022/09/25 06:58:11;;;;;;;13.50;8.90;;;15.40;99.90;;;;;;5056712;28;20048;-74
2022/09/25 07:00:37;;;;;;;13.30;8.55;;;15.40;99.90;;;;;;5061988;28;20021;-74
2022/09/25 07:05:47;;;;;;;;;;;15.50;99.90;;;;;;5064933;28;20035;-75
2022/09/25 07:08:15;;;;;;;16.30;8.93;;;15.50;99.90;;;;;;5059891;28;19909;-74
2022/09/25 07:10:48;;;;;;;16.52;9.60;;;15.50;99.90;;;;;;5054673;28;20025;-74
2022/09/25 07:13:14;;;;;;;11.70;7.97;;;15.50;99.90;;;;;;5067093;28;20435;-75
2022/09/25 07:15:39;;;;;;;17.40;9.10;;;15.50;99.90;;;;;;5057857;28;20401;-74
2022/09/25 07:18:05;;;;;;;18.80;9.48;;;15.40;99.90;;;;;;5066538;28;20020;-75
2022/09/25 07:20:31;;;;;;;13.85;8.25;;;15.40;99.90;;;;;;5068214;28;20021;-75
2022/09/25 07:23:02;;;;;;;12.32;8.43;;;15.50;99.90;;;;;;5063857;28;20090;-74
2022/09/25 07:25:30;;;;;;;11.35;8.15;;;15.50;99.90;;;;;;5059451;28;20409;-76
2022/09/25 07:27:57;;;;;;;15.68;8.95;;;15.50;99.90;;;;;;5062933;28;20021;-74
2022/09/25 07:30:27;;;;;;;13.95;8.50;;;15.50;99.90;;;;;;5067553;28;20111;-74
2022/09/25 07:32:52;;;;;;;13.82;8.73;;;15.50;99.90;;;;;;5068239;28;20123;-75
2022/09/25 07:35:18;;;;;;;19.55;8.38;;;15.40;99.90;;;;;;5068307;28;20458;-75
2022/09/25 07:37:44;;;;;;;12.55;7.15;;;15.50;99.90;;;;;;5064921;28;20024;-76
2022/09/25 07:40:13;;;;;;;15.50;7.75;;;15.50;99.90;;;;;;5067247;28;20475;-75
2022/09/25 07:42:40;;;;;;;16.70;8.75;;;15.50;99.90;;;;;;5068174;28;20107;-75
2022/09/25 07:45:07;;;;;;;17.65;9.85;;;15.50;99.90;;;;;;5063903;28;20032;-75
2022/09/25 07:47:32;;;;;;;10.40;7.72;;;15.50;99.90;;;;;;5063114;28;20029;-76
2022/09/25 07:49:58;;;;;;;13.68;8.20;;;15.50;99.90;;;;;;5067697;28;20085;-75
2022/09/25 07:52:24;;;;;;;12.88;8.27;;;15.50;99.90;;;;;;5057092;28;20079;-75
2022/09/25 07:54:50;;;;;;;14.52;7.95;;;15.50;99.90;;;;;;5067442;28;20028;-75
2022/09/25 07:57:19;;;;;;;13.18;8.13;;;15.50;99.90;;;;;;5056177;28;20550;-74
2022/09/25 07:59:45;;;;;;;11.88;8.05;;;15.50;99.90;;;;;;5051961;28;20017;-75
2022/09/25 08:02:11;;;;;;;10.07;6.35;;;15.40;99.90;;;;;;5061647;28;20070;-75
2022/09/25 08:04:37;;;;;;;12.18;6.97;;;15.50;99.90;;;;;;5064154;28;20032;-74
2022/09/25 08:07:03;;;;;;;10.88;7.13;;;15.50;99.90;;;;;;5066862;28;20104;-75
2022/09/25 08:09:29;;;;;;;11.13;6.95;;;15.40;99.90;;;;;;5059009;28;20389;-74
2022/09/25 08:11:55;;;;;;;9.13;6.90;;;15.40;99.90;;;;;;5058332;28;20511;-74
2022/09/25 08:14:22;;;;;;;12.30;7.32;;;15.40;99.90;;;;;;5059148;28;20039;-74
2022/09/25 08:16:48;;;;;;;16.77;6.82;;;15.40;99.90;;;;;;5067096;28;20393;-74
2022/09/25 08:19:17;;;;;;;16.08;6.80;;;15.40;99.90;;;;;;5066238;28;20388;-74
2022/09/25 08:21:43;;;;;;;11.07;6.38;;;15.40;99.90;;;;;;5064991;28;20108;-74
2022/09/25 08:24:09;;;;;;;14.20;6.32;;;15.40;99.90;;;;;;5064208;28;20444;-75
2022/09/25 08:26:36;;;;;;;11.90;6.45;;;15.50;99.90;;;;;;5066388;28;20033;-75
2022/09/25 08:29:03;;;;;;;12.45;6.70;;;15.50;99.90;;;;;;5071202;28;20024;-75
2022/09/25 08:31:29;;;;;;;8.48;6.05;;;15.50;99.90;;;;;;5067366;28;20063;-74
2022/09/25 08:33:55;;;;;;;12.90;7.07;;;15.50;99.90;;;;;;5061146;28;20035;-74
2022/09/25 08:36:22;;;;;;;11.40;6.03;;;15.40;99.90;;;;;;5068410;28;20078;-75
2022/09/25 08:38:48;;;;;;;12.95;6.15;;;15.40;99.90;;;;;;5061462;28;20085;-75
2022/09/25 08:41:20;;;;;;;10.50;5.97;;;15.40;99.90;;;;;;5058402;28;20033;-75
2022/09/25 08:44:04;;;;;;;15.50;6.57;;;15.50;99.90;;;;;;5060071;28;20055;-75
2022/09/25 08:49:30;;;;;;;11.38;6.35;;;15.40;99.90;;;;;;5058624;28;20044;-74
2022/09/25 08:52:00;;;;;;;12.02;6.03;;;15.40;99.90;;;;;;5061656;28;20032;-74
2022/09/25 08:54:30;;;;;;;15.43;7.45;;;15.40;99.90;;;;;;5067957;28;20110;-74
2022/09/25 08:57:02;;;;;;;14.40;7.10;;;15.40;99.90;;;;;;5067810;28;20029;-75
2022/09/25 08:59:33;;;;;;;14.40;7.15;;;15.40;99.90;;;;;;5061978;28;20503;-74
2022/09/25 09:02:09;;;;;;;14.15;7.75;;;15.40;99.90;;;;;;5066083;28;20223;-75
2022/09/25 09:04:45;;;;;;;13.77;7.20;;;15.40;99.90;;;;;;5058651;28;20078;-75
2022/09/25 09:07:18;;;;;;;11.20;7.75;;;15.40;99.90;;;;;;5066463;28;20400;-75
2022/09/25 09:09:53;;;;;;;13.52;8.43;;;15.40;99.90;;;;;;5068902;28;20047;-75
2022/09/25 09:12:50;;;;;;;15.48;7.72;;;15.40;99.90;;;;;;5059949;28;20067;-75
2022/09/25 09:15:35;;;;;;;13.75;7.32;;;15.40;99.90;;;;;;5059331;28;20065;-75
2022/09/25 09:18:15;;;;;;;12.77;7.38;;;15.40;99.90;;;;;;5067099;28;20062;-75
2022/09/25 09:21:10;;;;;;;14.73;7.03;;;15.40;99.90;;;;;;5064844;28;20376;-75
2022/09/25 09:23:45;;;;;;;10.10;6.97;;;15.40;99.90;;;;;;5071322;28;20472;-75
2022/09/25 09:26:34;;;;;;;15.48;7.82;;;15.30;99.90;;;;;;5070288;28;20036;-75
2022/09/25 09:29:41;;;;;;;9.73;7.00;;;15.40;99.90;;;;;;5028751;28;20143;-75
2022/09/25 09:32:41;;;;;;;12.23;6.45;;;15.30;99.90;;;;;;5037494;28;20037;-75
2022/09/25 09:35:22;;;;;;;12.70;6.78;;;15.40;99.90;;;;;;5065197;28;20037;-75
2022/09/25 09:38:09;;;;;;;10.65;6.07;;;15.40;99.90;;;;;;5086326;28;20103;-75
2022/09/25 09:40:53;;;;;;;11.65;6.68;;;15.40;99.90;;;;;;5067048;28;20021;-74
2022/09/25 09:43:51;;;;;;;12.07;6.30;;;15.40;99.90;;;;;;5066345;28;20385;-75
2022/09/25 09:46:38;;;;;;;11.60;6.22;;;15.40;99.90;;;;;;5067618;28;20094;-75
2022/09/25 09:49:20;;;;;;;11.23;5.90;;;15.40;99.90;;;;;;5069121;28;20079;-74
2022/09/25 09:51:46;;;;;;;7.63;5.60;;;15.40;99.90;;;;;;5060408;28;20044;-74
2022/09/25 09:54:23;;;;;;;11.65;5.70;;;15.40;99.90;;;;;;5067523;28;20169;-74
2022/09/25 09:56:51;;;;;;;7.20;3.55;;;15.40;99.90;;;;;;5064737;28;20028;-75
2022/09/25 09:59:35;;;;;;;9.57;3.85;;;15.40;99.90;;;;;;5067050;28;20027;-75
2022/09/25 10:02:14;;;;;;;9.02;4.50;;;15.40;99.90;;;;;;5063250;28;20380;-75
2022/09/25 10:04:41;;;;;;;7.68;4.18;;;15.40;99.90;;;;;;5062846;28;20380;-75
2022/09/25 10:07:17;;;;;;;10.20;4.72;;;15.40;99.90;;;;;;5058709;28;20601;-74
2022/09/25 10:09:43;;;;;;;8.95;4.35;;;15.40;99.90;;;;;;5060500;28;20127;-74
2022/09/25 10:12:29;;;;;;;8.57;4.10;;;15.40;99.90;;;;;;5054694;28;20014;-74
2022/09/25 10:14:57;;;;;;;5.45;3.70;;;15.40;99.90;;;;;;5065906;28;20128;-74
2022/09/25 10:17:24;;;;;;;9.98;2.95;;;15.40;99.90;;;;;;5065390;28;20017;-75
2022/09/25 10:19:56;;;;;;;7.47;2.90;;;15.40;99.90;;;;;;5067215;28;20029;-75
2022/09/25 10:22:27;;;;;;;8.27;3.22;;;15.40;99.90;;;;;;5057830;28;20021;-74
2022/09/25 10:25:01;;;;;;;7.38;3.42;;;15.40;99.90;;;;;;5068502;28;20036;-75
2022/09/25 10:27:35;;;;;;;8.07;3.65;;;15.40;99.90;;;;;;5062350;28;20089;-74
2022/09/25 10:30:10;;;;;;;5.95;2.92;;;15.40;99.90;;;;;;5060955;28;20434;-75
2022/09/25 10:33:00;;;;;;;6.85;2.97;;;15.40;99.90;;;;;;5067278;28;20024;-75
2022/09/25 10:35:41;;;;;;;4.47;3.20;;;15.40;99.90;;;;;;5066329;28;20032;-75
2022/09/25 10:38:41;;;;;;;6.20;3.08;;;15.40;99.90;;;;;;5067452;28;20012;-75
2022/09/25 10:41:12;;;;;;;6.82;2.80;;;15.40;99.90;;;;;;5058793;28;20058;-75
2022/09/25 10:44:18;;;;;;;6.63;3.00;;;15.40;99.90;;;;;;5066231;28;20017;-74
2022/09/25 10:52:17;;;;;;;6.57;2.60;;;15.50;99.90;;;;;;5044091;28;20082;-74
2022/09/25 10:54:43;;;;;;;4.28;2.47;;;15.40;99.90;;;;;;5061224;28;20477;-74
2022/09/25 10:57:37;;;;;;;6.40;2.35;;;15.40;99.90;;;;;;5059320;28;20028;-74
2022/09/25 11:00:18;;;;;;;6.50;2.75;;;15.40;99.90;;;;;;5066108;28;20476;-74
2022/09/25 11:02:45;;;;;;;4.72;2.40;;;15.40;99.90;;;;;;5068902;28;20033;-74
2022/09/25 11:05:18;;;;;;;6.30;2.40;;;15.40;99.90;;;;;;5068389;28;20051;-74
2022/09/25 11:07:53;;;;;;;4.35;1.70;;;15.40;99.90;;;;;;5056981;28;20405;-74
2022/09/25 11:10:29;;;;;;;7.05;2.15;;;15.40;99.90;;;;;;5062289;28;20071;-74
2022/09/25 11:12:57;;;;;;;10.15;2.10;;;15.40;99.90;;;;;;5058226;28;20109;-75
2022/09/25 11:15:26;;;;;;;5.00;2.30;;;15.40;99.90;;;;;;5068339;28;20032;-74
2022/09/25 11:17:54;;;;;;;2.92;2.00;;;15.40;99.90;;;;;;5061945;28;20032;-74
2022/09/25 11:20:29;;;;;;;6.07;2.17;;;15.40;99.90;;;;;;5068425;28;20032;-75
2022/09/25 11:23:23;;;;;;;5.82;2.83;;;15.40;99.90;;;;;;5071474;28;20877;-74
2022/09/25 11:25:57;;;;;;;3.35;1.88;;;15.40;99.90;;;;;;5065806;28;20055;-75
2022/09/25 11:28:35;;;;;;;7.60;2.38;;;15.50;99.90;;;;;;5058492;28;20034;-75
2022/09/25 11:31:11;;;;;;;4.82;2.00;;;15.40;99.90;;;;;;5062169;28;20078;-75
2022/09/25 11:33:49;;;;;;;5.18;1.67;;;15.40;99.90;;;;;;5066580;28;20028;-74
2022/09/25 11:36:21;;;;;;;6.25;2.10;;;15.40;99.90;;;;;;5058997;28;20032;-73
2022/09/25 11:41:47;;;;;;;4.65;1.95;;;15.30;99.90;;;;;;5067490;28;20042;-75
2022/09/25 11:44:56;;;;;;;5.05;2.30;;;15.40;99.90;;;;;;5060734;28;20028;-74
2022/09/25 11:47:46;;;;;;;4.63;1.85;;;15.40;99.90;;;;;;5084135;28;20020;-74
2022/09/25 11:50:16;;;;;;;3.30;1.73;;;15.40;99.90;;;;;;5068374;28;20024;-74
2022/09/25 11:53:10;;;;;;;2.97;1.73;;;15.40;99.90;;;;;;5043886;28;20048;-73
2022/09/25 11:56:02;;;;;;;3.80;1.70;;;15.40;99.90;;;;;;5058655;28;20047;-74
2022/09/25 11:58:32;;;;;;;8.20;2.42;;;15.40;99.90;;;;;;5060969;28;20037;-74
2022/09/25 12:01:00;;;;;;;4.32;1.50;;;15.40;99.90;;;;;;5061837;28;20025;-74
2022/09/25 12:03:34;;;;;;;3.83;2.40;;;15.40;99.90;;;;;;5059537;28;20059;-74
2022/09/25 12:06:20;;;;;;;3.53;1.65;;;15.40;99.90;;;;;;5063170;28;20082;-74
2022/09/25 12:09:08;;;;;;;3.08;1.70;;;15.40;99.90;;;;;;5061275;28;20048;-74
2022/09/25 12:12:12;;;;;;;2.78;1.63;;;15.40;99.90;;;;;;5066137;28;20124;-74
2022/09/25 12:14:41;;;;;;;4.45;2.33;;;15.40;99.90;;;;;;5058791;28;20112;-74
2022/09/25 12:17:19;;;;;;;2.53;1.40;;;15.40;99.90;;;;;;5060348;28;20493;-74
2022/09/25 12:20:10;;;;;;;3.95;1.52;;;15.40;99.90;;;;;;5059671;28;20025;-74
2022/09/25 12:23:07;;;;;;;9.00;1.80;;;15.40;99.90;;;;;;5056939;28;20029;-74
2022/09/25 12:25:33;;;;;;;4.18;1.48;;;15.40;99.90;;;;;;5057744;28;20021;-74
2022/09/25 12:28:05;;;;;;;2.40;1.63;;;15.40;99.90;;;;;;5067256;28;20522;-74
2022/09/25 12:31:02;;;;;;;2.33;1.65;;;15.40;99.90;;;;;;5060030;28;20028;-74
2022/09/25 12:33:58;;;;;;;5.45;1.85;;;15.40;99.90;;;;;;5060511;28;20037;-74
2022/09/25 12:36:35;;;;;;;3.05;1.90;;;15.40;99.90;;;;;;5059637;28;20373;-74
2022/09/25 12:39:20;;;;;;;3.92;1.42;;;15.40;99.90;;;;;;5068162;28;20111;-74
2022/09/25 12:41:56;;;;;;;3.92;1.80;;;15.40;99.90;;;;;;5066568;28;20096;-74
2022/09/25 12:44:42;;;;;;;1.77;1.45;;;15.40;99.90;;;;;;5062461;28;20028;-74
2022/09/25 12:47:37;;;;;;;5.18;1.67;;;15.40;99.90;;;;;;5067117;28;20021;-74
2022/09/25 12:50:16;;;;;;;;;;;15.40;99.90;;;;;;5059490;28;20056;-74
2022/09/25 12:52:52;;;;;;;2.13;1.38;;;15.40;99.90;;;;;;5049092;28;19916;-74
2022/09/25 12:55:22;;;;;;;2.65;1.73;;;15.40;99.90;;;;;;5061327;28;20039;-74
2022/09/25 12:57:54;;;;;;;3.92;1.77;;;15.40;99.90;;;;;;5067712;28;20021;-80
2022/09/25 13:00:22;;;;;;;1.70;1.05;;;15.40;99.90;;;;;;5083427;28;20032;-79
2022/09/25 13:03:15;;;;;;;6.72;1.10;;;15.50;99.50;;;;;;5081056;28;20024;-79
2022/09/25 13:05:51;;;;;;;1.75;0.95;;;15.60;99.90;;;;;;5070274;28;20435;-79
2022/09/25 13:08:36;;;;;;;4.22;0.77;;;15.60;99.30;;;;;;5072868;28;20037;-78
2022/09/25 13:11:24;;;;;;;3.88;1.08;;;15.60;98.40;;;;;;5082818;28;20036;-79
2022/09/25 13:13:54;;;;;;;1.25;0.70;;;15.50;97.80;;;;;;5064598;28;20063;-78
2022/09/25 13:16:20;;;;;;;4.88;1.60;;;15.60;98.60;;;;;;5070461;28;20025;-78
2022/09/25 13:19:26;;;;;;;3.17;0.90;;;15.70;98.30;;;;;;5077207;28;20131;-80
2022/09/25 13:21:59;;;;;;;2.70;1.58;;;15.70;97.90;;;;;;5073902;28;20021;-82